createdAt,value
2019-02-08T00:00:50.159Z,143065.55
2019-02-08T00:05:46.276Z,143065.55
2019-02-08T00:10:42.256Z,143074.91
2019-02-08T00:15:38.246Z,143081.92
2019-02-08T00:20:34.235Z,143079.56
2019-02-08T00:25:32.297Z,143081.92
2019-02-08T00:30:32.370Z,143081.92
2019-02-08T00:35:28.371Z,143078.41
2019-02-08T00:40:25.237Z,143084.27
2019-02-08T00:45:23.136Z,143074.91
2019-02-08T00:50:26.583Z,143079.56
2019-02-08T00:55:22.468Z,143087.78
2019-02-08T01:00:18.961Z,143092.44
2019-02-08T01:05:26.266Z,143090.13
2019-02-08T01:10:28.156Z,143097.14
2019-02-08T01:15:26.067Z,143081.92
2019-02-08T01:20:23.627Z,143073.70
2019-02-08T01:25:21.522Z,143070.20
2019-02-08T01:30:25.792Z,143064.34
2019-02-08T01:35:22.579Z,143038.61
2019-02-08T01:40:20.870Z,143037.45
2019-02-08T01:45:19.192Z,143025.75
2019-02-08T01:50:17.845Z,143025.75
2019-02-08T01:55:14.432Z,143017.53
2019-02-08T02:00:19.124Z,143022.23
2019-02-08T02:05:15.613Z,143016.38
2019-02-08T02:10:31.994Z,143009.38
2019-02-08T02:15:28.137Z,143007.02
2019-02-08T02:20:26.771Z,143000.00
2019-02-08T02:25:22.760Z,142990.64
2019-02-08T02:30:25.330Z,143010.52
2019-02-08T02:35:21.423Z,143001.16
2019-02-08T02:40:19.416Z,143002.36
2019-02-08T02:45:21.031Z,143014.03
2019-02-08T02:50:17.121Z,143002.36
2019-02-08T02:55:15.533Z,143033.94
2019-02-08T03:00:24.434Z,143037.45
2019-02-08T03:05:20.466Z,143049.13
2019-02-08T03:10:20.965Z,143051.47
2019-02-08T03:15:22.485Z,143042.11
2019-02-08T03:20:20.101Z,143039.77
2019-02-08T03:25:21.684Z,143037.45
2019-02-08T03:30:21.886Z,143049.13
2019-02-08T03:35:20.285Z,143054.98
2019-02-08T03:40:20.087Z,143039.77
2019-02-08T03:45:16.490Z,143065.55
2019-02-08T03:50:15.753Z,143052.67
2019-02-08T03:55:17.487Z,143060.84
2019-02-08T04:00:21.860Z,143037.45
2019-02-08T04:05:17.850Z,143045.63
2019-02-08T04:10:16.264Z,143040.95
2019-02-08T04:15:15.153Z,143032.75
2019-02-08T04:20:13.604Z,143037.45
2019-02-08T04:25:14.778Z,143016.38
2019-02-08T04:30:17.159Z,143008.16
2019-02-08T04:35:13.041Z,142978.94
2019-02-08T04:40:12.661Z,142964.91
2019-02-08T04:45:09.749Z,142964.91
2019-02-08T04:50:09.455Z,142969.56
2019-02-08T04:55:07.372Z,142967.22
2019-02-08T05:00:07.267Z,142962.56
2019-02-08T05:05:05.582Z,142961.36
2019-02-08T05:10:03.772Z,142943.84
2019-02-08T05:14:59.755Z,142952.00
2019-02-08T05:19:55.639Z,142932.12
2019-02-08T05:24:51.518Z,142926.27
2019-02-08T05:29:47.412Z,142913.41
2019-02-08T05:34:44.120Z,142927.47
2019-02-08T05:39:40.009Z,142927.47
2019-02-08T05:44:35.892Z,142941.48
2019-02-08T05:49:31.780Z,142920.42
2019-02-08T05:54:28.412Z,142904.05
2019-02-08T05:59:24.350Z,142908.75
2019-02-08T06:04:20.442Z,142897.05
2019-02-08T06:09:16.441Z,142908.75
2019-02-08T06:14:12.441Z,142901.70
2019-02-08T06:19:08.350Z,142915.77
2019-02-08T06:24:05.785Z,142920.42
2019-02-08T06:29:01.737Z,142904.05
2019-02-08T06:33:57.669Z,142899.39
2019-02-08T06:38:53.551Z,142892.34
2019-02-08T06:43:49.432Z,142882.98
2019-02-08T06:48:45.494Z,142861.97
2019-02-08T06:53:55.850Z,142845.56
2019-02-08T06:58:53.742Z,142844.41
2019-02-08T07:03:51.555Z,142840.91
2019-02-08T07:09:05.944Z,142866.62
2019-02-08T07:14:03.865Z,142861.97
2019-02-08T07:19:13.685Z,142854.91
2019-02-08T07:24:21.571Z,142873.62
2019-02-08T07:29:22.323Z,142890.03
2019-02-08T07:34:38.412Z,142911.06
2019-02-08T07:39:40.021Z,142916.91
2019-02-08T07:44:41.634Z,142941.48
2019-02-08T07:49:57.402Z,142946.19
2019-02-08T07:55:01.144Z,142969.56
2019-02-08T08:00:01.671Z,142983.63
2019-02-08T08:05:02.242Z,142995.30
2019-02-08T08:10:18.138Z,143023.39
2019-02-08T08:15:16.936Z,143045.63
2019-02-08T08:20:27.410Z,143070.20
2019-02-08T08:25:42.169Z,143063.19
2019-02-08T08:30:43.199Z,143078.41
2019-02-08T08:36:04.278Z,143103.00
2019-02-08T08:41:15.775Z,143121.73
2019-02-08T08:46:27.023Z,143136.95
2019-02-08T08:52:00.477Z,143156.84
2019-02-08T08:57:17.914Z,143177.94
2019-02-08T09:02:17.611Z,143200.17
2019-02-08T09:07:32.679Z,143195.47
2019-02-08T09:12:48.945Z,143214.20
2019-02-08T09:17:51.508Z,143215.41
2019-02-08T09:23:03.529Z,143248.17
2019-02-08T09:28:38.525Z,143271.63
2019-02-08T09:33:53.572Z,143269.27
2019-02-08T09:39:27.923Z,143272.78
2019-02-08T09:44:37.248Z,143276.28
2019-02-08T09:49:58.933Z,143299.73
2019-02-08T09:55:15.878Z,143309.16
2019-02-08T10:00:24.094Z,143304.45
2019-02-08T10:05:58.836Z,143325.55
2019-02-08T10:11:10.406Z,143298.53
2019-02-08T10:16:29.871Z,143297.38
2019-02-08T10:21:52.797Z,143290.38
2019-02-08T10:27:01.769Z,143292.67
2019-02-08T10:32:19.661Z,143295.03
2019-02-08T10:37:48.669Z,143327.91
2019-02-08T10:43:24.113Z,143339.59
2019-02-08T10:48:49.923Z,143372.41
2019-02-08T10:54:11.458Z,143402.84
2019-02-08T10:59:40.047Z,143406.41
2019-02-08T11:05:02.182Z,143422.80
2019-02-08T11:10:04.627Z,143433.33
2019-02-08T11:15:10.604Z,143441.55
2019-02-08T11:20:07.402Z,143434.53
2019-02-08T11:25:06.501Z,143468.47
2019-02-08T11:30:09.185Z,143447.41
2019-02-08T11:35:07.284Z,143436.84
2019-02-08T11:40:13.267Z,143445.06
2019-02-08T11:45:12.361Z,143468.47
2019-02-08T11:50:12.056Z,143489.59
2019-02-08T11:55:08.483Z,143501.33
2019-02-08T12:00:11.108Z,143548.22
2019-02-08T12:05:07.203Z,143611.53
2019-02-08T12:10:06.340Z,143588.09
2019-02-08T12:15:05.347Z,143623.27
2019-02-08T12:20:01.254Z,143591.61
2019-02-08T12:24:57.871Z,143590.41
2019-02-08T12:29:53.734Z,143608.02
2019-02-08T12:34:49.655Z,143618.55
2019-02-08T12:39:45.517Z,143653.72
2019-02-08T12:44:41.408Z,143649.06
2019-02-08T12:49:37.374Z,143659.59
2019-02-08T12:54:34.074Z,143619.75
2019-02-08T12:59:30.479Z,143625.63
2019-02-08T13:04:42.699Z,143585.73
2019-02-08T13:09:39.329Z,143564.63
2019-02-08T13:14:36.171Z,143582.22
2019-02-08T13:19:33.332Z,143559.95
2019-02-08T13:24:31.447Z,143559.95
2019-02-08T13:29:27.522Z,143574.00
2019-02-08T13:34:23.665Z,143569.33
2019-02-08T13:39:19.583Z,143575.16
2019-02-08T13:44:15.574Z,143583.37
2019-02-08T13:49:11.459Z,143597.47
2019-02-08T13:54:07.972Z,143599.78
2019-02-08T13:59:04.015Z,143590.41
2019-02-08T14:03:59.909Z,143603.30
2019-02-08T14:08:55.839Z,143622.06
2019-02-08T14:13:51.742Z,143611.53
2019-02-08T14:18:47.644Z,143593.92
2019-02-08T14:23:53.021Z,143582.22
2019-02-08T14:28:49.205Z,143582.22
2019-02-08T14:33:45.118Z,143591.61
2019-02-08T14:38:41.008Z,143599.78
2019-02-08T14:43:36.903Z,143601.00
2019-02-08T14:48:32.791Z,143609.17
2019-02-08T14:53:28.850Z,143610.38
2019-02-08T14:58:24.754Z,143602.16
2019-02-08T15:03:20.751Z,143589.25
2019-02-08T15:08:16.654Z,143585.73
2019-02-08T15:13:12.647Z,143592.77
2019-02-08T15:18:08.803Z,143583.37
2019-02-08T15:23:05.239Z,143576.36
2019-02-08T15:28:01.239Z,143583.37
2019-02-08T15:32:57.258Z,143585.73
2019-02-08T15:37:53.341Z,143583.37
2019-02-08T15:42:49.231Z,143582.22
2019-02-08T15:47:45.115Z,143564.63
2019-02-08T15:52:41.200Z,143559.95
2019-02-08T15:57:37.422Z,143556.39
2019-02-08T16:02:33.557Z,143559.95
2019-02-08T16:07:29.674Z,143555.23
2019-02-08T16:12:25.566Z,143548.22
2019-02-08T16:17:21.556Z,143541.19
2019-02-08T16:22:17.549Z,143547.02
2019-02-08T16:27:14.538Z,143535.33
2019-02-08T16:32:13.298Z,143534.13
2019-02-08T16:37:11.841Z,143531.81
2019-02-08T16:42:08.130Z,143530.61
2019-02-08T16:47:04.723Z,143531.81
2019-02-08T16:52:00.978Z,143523.59
2019-02-08T16:56:58.299Z,143531.81
2019-02-08T17:01:54.312Z,143538.84
2019-02-08T17:06:51.075Z,143535.33
2019-02-08T17:11:47.073Z,143527.09
2019-02-08T17:16:43.146Z,143529.45
2019-02-08T17:21:39.037Z,143520.08
2019-02-08T17:26:34.924Z,143518.88
2019-02-08T17:31:31.919Z,143518.88
2019-02-08T17:36:29.089Z,143507.19
2019-02-08T17:41:25.079Z,143503.67
2019-02-08T17:46:21.004Z,143503.67
2019-02-08T17:51:16.893Z,143515.38
2019-02-08T17:56:12.804Z,143508.34
2019-02-08T18:01:08.794Z,143507.19
2019-02-08T18:06:07.487Z,143498.97
2019-02-08T18:11:04.488Z,143494.30
2019-02-08T18:16:00.489Z,143487.23
2019-02-08T18:20:58.975Z,143494.30
2019-02-08T18:25:54.940Z,143494.30
2019-02-08T18:30:51.389Z,143511.86
2019-02-08T18:35:48.731Z,143508.34
2019-02-08T18:40:44.734Z,143510.70
2019-02-08T18:45:40.954Z,143496.61
2019-02-08T18:50:40.061Z,143514.22
2019-02-08T18:55:35.958Z,143527.09
2019-02-08T19:00:43.817Z,143536.48
2019-02-08T19:05:39.807Z,143516.56
2019-02-08T19:10:35.697Z,143532.97
2019-02-08T19:15:31.579Z,143534.13
2019-02-08T19:20:27.764Z,143538.84
2019-02-08T19:25:26.763Z,143541.19
2019-02-08T19:30:26.471Z,143545.86
2019-02-08T19:35:22.473Z,143543.50
2019-02-08T19:40:31.062Z,143556.39
2019-02-08T19:45:26.954Z,143557.59
2019-02-08T19:50:26.628Z,143557.59
2019-02-08T19:55:22.528Z,143562.27
2019-02-08T20:00:24.408Z,143555.23
2019-02-08T20:05:22.104Z,143569.33
2019-02-08T20:10:30.065Z,143571.66
2019-02-08T20:15:26.162Z,143564.63
2019-02-08T20:20:23.209Z,143571.66
2019-02-08T20:25:24.803Z,143566.98
2019-02-08T20:30:23.771Z,143563.47
2019-02-08T20:35:22.067Z,143569.33
2019-02-08T20:40:23.119Z,143558.75
2019-02-08T20:45:21.221Z,143566.98
2019-02-08T20:50:17.519Z,143569.33
2019-02-08T20:55:15.907Z,143565.78
2019-02-08T21:00:18.951Z,143574.00
2019-02-08T21:05:16.812Z,143569.33
2019-02-08T21:10:12.891Z,143566.98
2019-02-08T21:15:15.853Z,143566.98
2019-02-08T21:20:14.349Z,143574.00
2019-02-08T21:25:13.640Z,143576.36
2019-02-08T21:30:13.012Z,143576.36
2019-02-08T21:35:09.904Z,143571.66
2019-02-08T21:40:14.722Z,143574.00
2019-02-08T21:45:14.225Z,143570.48
2019-02-08T21:50:13.721Z,143564.63
2019-02-08T21:55:12.456Z,143568.12
2019-02-08T22:00:12.151Z,143561.11
2019-02-08T22:05:08.946Z,143562.27
2019-02-08T22:10:08.449Z,143554.09
2019-02-08T22:15:10.667Z,143552.89
2019-02-08T22:20:10.370Z,143562.27
2019-02-08T22:25:09.374Z,143558.75
2019-02-08T22:30:09.084Z,143561.11
2019-02-08T22:35:08.377Z,143574.00
2019-02-08T22:40:10.121Z,143566.98
2019-02-08T22:45:13.047Z,143562.27
2019-02-08T22:50:12.047Z,143563.47
2019-02-08T22:55:11.202Z,143556.39
2019-02-08T23:00:34.596Z,143545.86
2019-02-08T23:05:30.511Z,143545.86
2019-02-08T23:10:26.604Z,143552.89
2019-02-08T23:15:22.995Z,143557.59
2019-02-08T23:20:18.894Z,143562.27
2019-02-08T23:25:14.894Z,143562.27
2019-02-08T23:30:13.888Z,143570.48
2019-02-08T23:35:11.385Z,143562.27
2019-02-08T23:40:08.281Z,143564.63
2019-02-08T23:45:07.982Z,143576.36
2019-02-08T23:50:10.027Z,143575.16
2019-02-08T23:55:08.302Z,143561.11
